createdAt,value
2023-04-26T00:00:53.234Z,8.90
2023-04-26T00:02:14.257Z,8.90
2023-04-26T00:03:35.199Z,8.90
2023-04-26T00:04:56.246Z,8.90
2023-04-26T00:06:17.051Z,9.00
2023-04-26T00:07:37.834Z,9.00
2023-04-26T00:08:58.654Z,9.00
2023-04-26T00:10:19.576Z,9.00
2023-04-26T00:11:41.726Z,9.00
2023-04-26T00:13:02.386Z,9.10
2023-04-26T00:14:23.277Z,9.10
2023-04-26T00:15:43.821Z,9.10
2023-04-26T00:17:04.669Z,9.20
2023-04-26T00:18:25.696Z,9.10
2023-04-26T00:19:46.537Z,9.20
2023-04-26T00:21:07.366Z,9.10
2023-04-26T00:22:28.053Z,9.10
2023-04-26T00:23:48.791Z,9.10
2023-04-26T00:25:10.596Z,9.10
2023-04-26T00:26:31.532Z,9.10
2023-04-26T00:27:53.981Z,9.10
2023-04-26T00:29:14.819Z,9.00
2023-04-26T00:30:36.229Z,9.00
2023-04-26T00:31:56.967Z,9.00
2023-04-26T00:33:17.693Z,9.00
2023-04-26T00:34:38.679Z,9.00
2023-04-26T00:35:59.086Z,9.00
2023-04-26T00:37:19.859Z,9.00
2023-04-26T00:38:40.801Z,9.10
2023-04-26T00:40:01.663Z,9.10
2023-04-26T00:41:22.333Z,9.10
2023-04-26T00:42:43.146Z,9.00
2023-04-26T00:44:05.516Z,9.00
2023-04-26T00:45:27.040Z,9.10
2023-04-26T00:46:48.659Z,9.00
2023-04-26T00:48:09.300Z,9.00
2023-04-26T00:49:30.190Z,9.00
2023-04-26T00:50:51.022Z,9.00
2023-04-26T00:52:11.907Z,8.90
2023-04-26T00:53:33.411Z,8.80
2023-04-26T00:54:54.576Z,8.80
2023-04-26T00:56:17.123Z,8.70
2023-04-26T00:57:37.972Z,8.60
2023-04-26T00:58:58.894Z,8.60
2023-04-26T01:00:21.364Z,8.60
2023-04-26T01:01:42.328Z,8.60
2023-04-26T01:03:03.677Z,8.50
2023-04-26T01:04:24.973Z,8.50
2023-04-26T01:05:46.280Z,8.50
2023-04-26T01:07:07.123Z,8.50
2023-04-26T01:08:28.168Z,8.40
2023-04-26T01:09:49.585Z,8.40
2023-04-26T01:11:11.525Z,8.40
2023-04-26T01:12:32.896Z,8.30
2023-04-26T01:13:53.785Z,8.30
2023-04-26T01:15:14.337Z,8.30
2023-04-26T01:16:36.757Z,8.30
2023-04-26T01:17:57.356Z,8.30
2023-04-26T01:19:18.511Z,8.20
2023-04-26T01:20:39.062Z,8.20
2023-04-26T01:21:59.765Z,8.20
2023-04-26T01:23:21.997Z,8.20
2023-04-26T01:24:46.523Z,8.20
2023-04-26T01:26:07.303Z,8.10
2023-04-26T01:27:28.161Z,8.20
2023-04-26T01:28:49.165Z,8.20
2023-04-26T01:30:11.158Z,8.20
2023-04-26T01:31:31.833Z,8.20
2023-04-26T01:32:52.590Z,8.20
2023-04-26T01:34:14.209Z,8.10
2023-04-26T01:35:34.837Z,8.00
2023-04-26T01:36:55.745Z,8.10
2023-04-26T01:38:16.589Z,8.00
2023-04-26T01:39:38.976Z,8.00
2023-04-26T01:40:59.550Z,8.00
2023-04-26T01:42:20.562Z,7.90
2023-04-26T01:43:41.058Z,7.90
2023-04-26T01:45:01.889Z,7.90
2023-04-26T01:46:23.077Z,7.90
2023-04-26T01:47:43.873Z,7.90
2023-04-26T01:49:04.765Z,8.00
2023-04-26T01:50:25.608Z,7.90
2023-04-26T01:51:46.377Z,7.90
2023-04-26T01:53:07.305Z,7.90
2023-04-26T01:54:28.238Z,8.00
2023-04-26T01:55:50.436Z,8.00
2023-04-26T01:57:11.015Z,8.00
2023-04-26T01:58:32.031Z,8.00
2023-04-26T01:59:52.724Z,7.90
2023-04-26T02:01:13.581Z,7.90
2023-04-26T02:02:34.659Z,7.90
2023-04-26T02:03:58.342Z,7.90
2023-04-26T02:05:18.971Z,7.90
2023-04-26T02:06:39.775Z,7.90
2023-04-26T02:08:00.554Z,7.90
2023-04-26T02:09:21.514Z,7.90
2023-04-26T02:10:42.310Z,7.90
2023-04-26T02:12:04.426Z,7.90
2023-04-26T02:13:25.456Z,7.90
2023-04-26T02:14:46.019Z,7.90
2023-04-26T02:16:07.404Z,7.90
2023-04-26T02:17:28.339Z,7.90
2023-04-26T02:18:49.145Z,7.90
2023-04-26T02:20:11.424Z,7.90
2023-04-26T02:21:32.276Z,7.90
2023-04-26T02:22:52.989Z,8.00
2023-04-26T02:24:13.922Z,8.00
2023-04-26T02:25:34.505Z,7.90
2023-04-26T02:26:55.463Z,8.00
2023-04-26T02:28:17.509Z,8.00
2023-04-26T02:29:44.504Z,7.90
2023-04-26T02:31:05.909Z,7.90
2023-04-26T02:32:26.687Z,7.80
2023-04-26T02:33:47.640Z,7.70
2023-04-26T02:35:09.265Z,7.70
2023-04-26T02:36:30.238Z,7.60
2023-04-26T02:37:51.128Z,7.70
2023-04-26T02:39:11.675Z,7.80
2023-04-26T02:40:32.631Z,7.80
2023-04-26T02:41:53.322Z,7.90
2023-04-26T02:43:14.426Z,7.90
2023-04-26T02:44:36.856Z,7.80
2023-04-26T02:45:57.789Z,7.80
2023-04-26T02:47:18.756Z,7.80
2023-04-26T02:48:39.823Z,7.80
2023-04-26T02:50:00.846Z,7.80
2023-04-26T02:51:21.623Z,7.80
2023-04-26T02:52:42.225Z,7.80
2023-04-26T02:54:03.792Z,7.90
2023-04-26T02:55:26.241Z,7.90
2023-04-26T02:56:47.049Z,8.00
2023-04-26T02:58:07.845Z,8.00
2023-04-26T02:59:28.805Z,8.10
2023-04-26T03:00:51.387Z,8.00
2023-04-26T03:02:11.979Z,7.90
2023-04-26T03:03:33.385Z,7.80
2023-04-26T03:04:55.615Z,7.70
2023-04-26T03:06:16.137Z,7.80
2023-04-26T03:07:36.846Z,7.70
2023-04-26T03:08:57.723Z,7.60
2023-04-26T03:10:18.760Z,7.60
2023-04-26T03:11:39.308Z,7.70
2023-04-26T03:13:00.194Z,7.70
2023-04-26T03:14:20.917Z,7.60
2023-04-26T03:15:45.258Z,7.70
2023-04-26T03:17:07.154Z,7.80
2023-04-26T03:18:27.869Z,7.80
2023-04-26T03:19:48.560Z,7.80
2023-04-26T03:21:09.372Z,7.80
2023-04-26T03:22:30.125Z,7.80
2023-04-26T03:23:50.981Z,7.80
2023-04-26T03:25:11.647Z,7.80
2023-04-26T03:26:32.553Z,7.70
2023-04-26T03:27:53.090Z,7.60
2023-04-26T03:29:14.402Z,7.70
2023-04-26T03:30:34.970Z,7.80
2023-04-26T03:31:57.787Z,7.80
2023-04-26T03:33:19.847Z,7.80
2023-04-26T03:34:40.577Z,7.80
2023-04-26T03:36:01.462Z,7.90
2023-04-26T03:37:22.249Z,7.80
2023-04-26T03:38:43.123Z,7.80
2023-04-26T03:40:05.097Z,7.80
2023-04-26T03:41:25.716Z,7.80
2023-04-26T03:42:46.569Z,7.90
2023-04-26T03:44:07.353Z,7.90
2023-04-26T03:45:28.334Z,7.90
2023-04-26T03:46:49.218Z,7.70
2023-04-26T03:48:10.095Z,7.70
2023-04-26T03:49:32.182Z,7.80
2023-04-26T03:50:53.110Z,7.80
2023-04-26T03:52:13.811Z,7.80
2023-04-26T03:53:34.570Z,7.80
2023-04-26T03:54:55.604Z,7.80
2023-04-26T03:56:16.403Z,7.80
2023-04-26T03:57:37.477Z,7.80
2023-04-26T03:58:58.349Z,7.80
2023-04-26T04:00:19.287Z,7.80
2023-04-26T04:01:40.134Z,7.80
2023-04-26T04:03:00.963Z,7.80
2023-04-26T04:04:21.752Z,7.80
2023-04-26T04:05:44.001Z,7.80
2023-04-26T04:07:04.843Z,7.80
2023-04-26T04:08:25.613Z,7.70
2023-04-26T04:09:46.274Z,7.70
2023-04-26T04:11:07.039Z,7.60
2023-04-26T04:12:28.016Z,7.60
2023-04-26T04:13:49.096Z,7.50
2023-04-26T04:15:10.708Z,7.50
2023-04-26T04:16:31.332Z,7.50
2023-04-26T04:17:51.834Z,7.50
2023-04-26T04:19:12.556Z,7.60
2023-04-26T04:20:33.655Z,7.60
2023-04-26T04:21:56.044Z,7.60
2023-04-26T04:23:16.621Z,7.70
2023-04-26T04:24:37.921Z,7.70
2023-04-26T04:25:58.505Z,7.70
2023-04-26T04:27:19.576Z,7.70
2023-04-26T04:28:40.526Z,7.60
2023-04-26T04:30:01.127Z,7.70
2023-04-26T04:31:21.631Z,7.70
2023-04-26T04:32:42.373Z,7.70
2023-04-26T04:34:03.474Z,7.70
2023-04-26T04:35:24.030Z,7.60
2023-04-26T04:36:44.817Z,7.60
2023-04-26T04:38:07.110Z,7.70
2023-04-26T04:39:27.767Z,7.60
2023-04-26T04:40:48.603Z,7.60
2023-04-26T04:42:09.208Z,7.60
2023-04-26T04:43:30.067Z,7.70
2023-04-26T04:44:50.970Z,7.70
2023-04-26T04:46:12.902Z,7.70
2023-04-26T04:47:33.788Z,7.70
2023-04-26T04:48:54.841Z,7.60
2023-04-26T04:50:15.892Z,7.70
2023-04-26T04:51:36.717Z,7.70
2023-04-26T04:52:57.128Z,7.70
2023-04-26T04:54:19.538Z,7.70
2023-04-26T04:55:40.273Z,7.70
2023-04-26T04:57:01.076Z,7.80
2023-04-26T04:58:21.868Z,7.80
2023-04-26T04:59:42.687Z,7.80
2023-04-26T05:01:03.519Z,7.80
2023-04-26T05:02:24.532Z,7.80
2023-04-26T05:03:45.757Z,7.80
2023-04-26T05:05:07.879Z,7.70
2023-04-26T05:06:28.775Z,7.70
2023-04-26T05:07:49.461Z,7.80
2023-04-26T05:09:10.223Z,7.80
2023-04-26T05:10:32.408Z,7.80
2023-04-26T05:11:53.010Z,7.80
2023-04-26T05:13:13.951Z,7.80
2023-04-26T05:14:34.777Z,7.80
2023-04-26T05:15:55.887Z,7.80
2023-04-26T05:17:16.258Z,7.80
2023-04-26T05:18:37.152Z,7.80
2023-04-26T05:19:58.240Z,7.90
2023-04-26T05:21:18.642Z,7.90
2023-04-26T05:22:39.295Z,8.00
2023-04-26T05:24:00.136Z,8.00
2023-04-26T05:25:22.432Z,8.00
2023-04-26T05:26:45.273Z,8.00
2023-04-26T05:28:05.764Z,8.00
2023-04-26T05:29:29.761Z,8.00
2023-04-26T05:30:50.610Z,8.10
2023-04-26T05:32:11.404Z,8.00
2023-04-26T05:33:32.387Z,8.10
2023-04-26T05:34:53.190Z,8.10
2023-04-26T05:36:13.977Z,8.20
2023-04-26T05:37:35.243Z,8.10
2023-04-26T05:38:55.849Z,8.10
2023-04-26T05:40:16.784Z,8.10
2023-04-26T05:41:37.629Z,8.10
2023-04-26T05:42:59.804Z,8.20
2023-04-26T05:44:20.252Z,8.30
2023-04-26T05:45:49.785Z,8.30
2023-04-26T05:47:10.750Z,8.30
2023-04-26T05:48:31.682Z,8.30
2023-04-26T05:49:52.674Z,8.20
2023-04-26T05:51:13.451Z,8.30
2023-04-26T05:52:34.319Z,8.30
2023-04-26T05:53:55.194Z,8.40
2023-04-26T05:55:16.055Z,8.40
2023-04-26T05:56:37.160Z,8.50
2023-04-26T05:58:02.946Z,8.50
2023-04-26T05:59:23.442Z,8.60
2023-04-26T06:00:44.178Z,8.60
2023-04-26T06:02:05.060Z,8.60
2023-04-26T06:03:26.345Z,8.70
2023-04-26T06:04:47.408Z,8.70
2023-04-26T06:06:08.238Z,8.70
2023-04-26T06:07:29.003Z,8.70
2023-04-26T06:08:49.828Z,8.50
2023-04-26T06:10:11.348Z,8.50
2023-04-26T06:11:32.060Z,8.50
2023-04-26T06:12:53.641Z,8.50
2023-04-26T06:14:29.426Z,8.60
2023-04-26T06:15:50.917Z,8.60
2023-04-26T06:17:11.968Z,8.60
2023-04-26T06:18:32.750Z,8.60
2023-04-26T06:19:53.831Z,8.60
2023-04-26T06:21:14.471Z,8.70
2023-04-26T06:22:34.967Z,8.70
2023-04-26T06:23:55.981Z,8.70
2023-04-26T06:25:17.076Z,8.80
2023-04-26T06:26:37.859Z,8.90
2023-04-26T06:27:58.560Z,9.00
2023-04-26T06:29:21.309Z,9.00
2023-04-26T06:30:42.966Z,9.10
2023-04-26T06:32:03.489Z,9.10
2023-04-26T06:33:24.610Z,9.10
2023-04-26T06:34:45.624Z,9.10
2023-04-26T06:36:10.981Z,9.10
2023-04-26T06:37:32.004Z,9.10
2023-04-26T06:38:52.719Z,9.20
2023-04-26T06:40:13.957Z,9.20
2023-04-26T06:41:34.770Z,9.10
2023-04-26T06:42:58.531Z,9.10
2023-04-26T06:44:20.365Z,9.20
2023-04-26T06:45:42.195Z,9.20
2023-04-26T06:47:04.452Z,9.30
2023-04-26T06:48:25.572Z,9.30
2023-04-26T06:49:46.216Z,9.40
2023-04-26T06:51:07.487Z,9.40
2023-04-26T06:52:28.390Z,9.20
2023-04-26T06:53:49.617Z,9.20
2023-04-26T06:55:10.990Z,9.30
2023-04-26T06:56:31.678Z,9.30
2023-04-26T06:57:52.691Z,9.40
2023-04-26T06:59:13.591Z,9.40
2023-04-26T07:00:35.692Z,9.40
2023-04-26T07:01:56.296Z,9.40
2023-04-26T07:03:17.041Z,9.30
2023-04-26T07:04:38.180Z,9.40
2023-04-26T07:05:59.254Z,9.40
2023-04-26T07:07:20.176Z,9.40
2023-04-26T07:08:40.846Z,9.50
2023-04-26T07:10:01.760Z,9.50
2023-04-26T07:11:24.669Z,9.60
2023-04-26T07:12:47.467Z,9.60
2023-04-26T07:14:08.063Z,9.60
2023-04-26T07:15:29.520Z,9.70
2023-04-26T07:16:51.479Z,9.70
2023-04-26T07:18:12.357Z,9.80
2023-04-26T07:19:33.591Z,9.80
2023-04-26T07:20:53.905Z,9.80
2023-04-26T07:22:14.934Z,9.90
2023-04-26T07:23:35.969Z,10.00
2023-04-26T07:24:56.648Z,10.00
2023-04-26T07:26:17.478Z,10.00
2023-04-26T07:27:38.415Z,9.90
2023-04-26T07:28:59.380Z,9.80
2023-04-26T07:30:20.381Z,9.70
2023-04-26T07:31:41.554Z,9.60
2023-04-26T07:33:04.009Z,9.50
2023-04-26T07:34:24.929Z,9.40
2023-04-26T07:35:45.612Z,9.40
2023-04-26T07:37:06.370Z,9.30
2023-04-26T07:38:27.642Z,9.30
2023-04-26T07:39:48.788Z,9.20
2023-04-26T07:41:09.627Z,9.10
2023-04-26T07:42:30.480Z,9.10
2023-04-26T07:43:51.436Z,9.10
2023-04-26T07:45:13.132Z,9.10
2023-04-26T07:46:33.789Z,9.10
2023-04-26T07:47:55.679Z,9.10
2023-04-26T07:49:17.755Z,9.20
2023-04-26T07:50:38.735Z,9.20
2023-04-26T07:51:59.526Z,9.20
2023-04-26T07:53:20.410Z,9.20
2023-04-26T07:54:41.346Z,9.30
2023-04-26T07:56:04.359Z,9.40
2023-04-26T07:57:24.873Z,9.40
2023-04-26T07:58:45.681Z,9.50
2023-04-26T08:00:08.855Z,9.60
2023-04-26T08:01:29.353Z,9.40
2023-04-26T08:02:50.356Z,9.50
2023-04-26T08:04:11.618Z,9.70
2023-04-26T08:05:34.289Z,9.80
2023-04-26T08:06:57.047Z,9.80
2023-04-26T08:08:18.937Z,9.80
2023-04-26T08:09:40.044Z,9.90
2023-04-26T08:11:01.205Z,10.00
2023-04-26T08:12:21.744Z,9.90
2023-04-26T08:13:42.576Z,10.00
2023-04-26T08:15:04.078Z,10.00
2023-04-26T08:16:24.741Z,9.90
2023-04-26T08:17:45.910Z,9.80
2023-04-26T08:19:06.892Z,9.70
2023-04-26T08:20:27.877Z,9.80
2023-04-26T08:21:49.719Z,9.90
2023-04-26T08:23:10.546Z,10.10
2023-04-26T08:24:31.653Z,10.10
2023-04-26T08:25:52.496Z,10.20
2023-04-26T08:27:13.492Z,10.30
2023-04-26T08:28:34.206Z,10.20
2023-04-26T08:29:54.949Z,10.20
2023-04-26T08:31:17.580Z,10.10
2023-04-26T08:32:38.847Z,10.00
2023-04-26T08:33:59.843Z,10.00
2023-04-26T08:35:20.489Z,10.00
2023-04-26T08:36:41.652Z,10.00
2023-04-26T08:38:04.073Z,10.10
2023-04-26T08:39:24.794Z,10.10
2023-04-26T08:40:47.253Z,10.10
2023-04-26T08:42:14.807Z,10.20
2023-04-26T08:43:38.475Z,10.30
2023-04-26T08:45:01.756Z,10.40
2023-04-26T08:46:24.687Z,10.30
2023-04-26T08:47:49.035Z,10.40
2023-04-26T08:49:35.575Z,10.30
2023-04-26T08:50:56.604Z,10.30
2023-04-26T08:52:17.612Z,10.20
2023-04-26T08:53:40.108Z,10.30
2023-04-26T08:55:01.225Z,10.40
2023-04-26T08:56:23.142Z,10.40
2023-04-26T08:57:46.336Z,10.40
2023-04-26T08:59:07.244Z,10.40
2023-04-26T09:00:28.203Z,10.50
2023-04-26T09:01:49.475Z,10.30
2023-04-26T09:03:10.711Z,10.30
2023-04-26T09:04:31.825Z,10.40
2023-04-26T09:05:53.576Z,10.60
2023-04-26T09:07:21.883Z,10.60
2023-04-26T09:08:45.479Z,10.60
2023-04-26T09:10:07.680Z,10.60
2023-04-26T09:11:29.500Z,10.60
2023-04-26T09:12:52.419Z,10.70
2023-04-26T09:14:13.108Z,10.70
2023-04-26T09:15:34.018Z,10.50
2023-04-26T09:16:57.992Z,10.40
2023-04-26T09:18:21.304Z,10.50
2023-04-26T09:19:42.311Z,10.70
2023-04-26T09:21:06.575Z,10.80
2023-04-26T09:22:35.417Z,10.70
2023-04-26T09:24:01.415Z,10.70
2023-04-26T09:25:30.067Z,10.50
2023-04-26T09:27:01.892Z,10.30
2023-04-26T09:28:24.162Z,10.20
2023-04-26T09:29:59.462Z,10.00
2023-04-26T09:31:40.230Z,9.90
2023-04-26T09:33:02.883Z,9.70
2023-04-26T09:34:23.559Z,9.50
2023-04-26T09:35:44.765Z,9.30
2023-04-26T09:37:05.401Z,9.30
2023-04-26T09:38:26.371Z,9.30
2023-04-26T09:39:51.380Z,9.20
2023-04-26T09:41:12.027Z,9.10
2023-04-26T09:42:35.502Z,9.00
2023-04-26T09:43:59.250Z,9.00
2023-04-26T09:45:20.343Z,9.10
2023-04-26T09:46:41.048Z,9.10
2023-04-26T09:48:20.253Z,9.20
2023-04-26T09:49:46.214Z,9.30
2023-04-26T09:51:10.896Z,9.40
2023-04-26T09:52:31.494Z,9.40
2023-04-26T09:53:53.570Z,9.60
2023-04-26T09:55:35.024Z,9.70
2023-04-26T09:57:01.964Z,9.90
2023-04-26T09:58:22.585Z,9.80
2023-04-26T09:59:46.446Z,9.80
2023-04-26T10:01:08.752Z,9.80
2023-04-26T10:02:29.929Z,9.90
2023-04-26T10:03:52.017Z,9.80
2023-04-26T10:05:13.418Z,9.90
2023-04-26T10:06:34.068Z,10.10
2023-04-26T10:07:55.032Z,10.20
2023-04-26T10:09:15.972Z,10.40
2023-04-26T10:10:40.106Z,10.60
2023-04-26T10:12:01.363Z,10.50
2023-04-26T10:13:22.613Z,10.70
2023-04-26T10:14:44.797Z,10.80
2023-04-26T10:16:07.329Z,10.80
2023-04-26T10:17:28.282Z,10.70
2023-04-26T10:18:49.208Z,10.70
2023-04-26T10:20:13.476Z,10.90
2023-04-26T10:21:39.575Z,10.90
2023-04-26T10:23:03.629Z,11.10
2023-04-26T10:24:24.545Z,11.20
2023-04-26T10:25:46.568Z,11.30
2023-04-26T10:27:07.051Z,11.20
2023-04-26T10:29:01.719Z,11.30
2023-04-26T10:30:23.421Z,11.30
2023-04-26T10:32:09.204Z,11.40
2023-04-26T10:33:30.329Z,11.40
2023-04-26T10:35:13.018Z,11.50
2023-04-26T10:37:10.067Z,11.60
2023-04-26T10:38:31.079Z,11.60
2023-04-26T10:40:26.678Z,11.50
2023-04-26T10:41:48.753Z,11.30
2023-04-26T10:43:28.522Z,11.10
2023-04-26T10:44:50.371Z,11.40
2023-04-26T10:46:34.863Z,11.60
2023-04-26T10:48:17.924Z,11.70
2023-04-26T10:49:46.454Z,11.50
2023-04-26T10:51:10.034Z,11.40
2023-04-26T10:52:30.667Z,11.50
2023-04-26T10:54:00.698Z,11.60
2023-04-26T10:55:39.091Z,11.60
2023-04-26T10:57:01.195Z,11.70
2023-04-26T10:58:28.499Z,11.40
2023-04-26T11:00:35.158Z,11.50
2023-04-26T11:02:01.024Z,11.50
2023-04-26T11:03:23.698Z,11.50
2023-04-26T11:04:53.807Z,11.50
2023-04-26T11:06:16.086Z,11.50
2023-04-26T11:07:37.846Z,11.60
2023-04-26T11:09:00.669Z,11.50
2023-04-26T11:10:23.309Z,11.60
2023-04-26T11:11:51.984Z,11.70
2023-04-26T11:13:14.259Z,11.70
2023-04-26T11:14:34.971Z,11.80
2023-04-26T11:16:01.921Z,11.90
2023-04-26T11:17:24.266Z,11.90
2023-04-26T11:18:46.976Z,11.90
2023-04-26T11:20:15.790Z,12.10
2023-04-26T11:21:37.218Z,12.10
2023-04-26T11:22:58.509Z,12.10
2023-04-26T11:24:26.027Z,12.20
2023-04-26T11:25:47.067Z,12.00
2023-04-26T11:27:09.760Z,12.00
2023-04-26T11:28:34.308Z,12.00
2023-04-26T11:29:55.819Z,12.00
2023-04-26T11:31:19.455Z,12.10
2023-04-26T11:32:40.449Z,12.00
2023-04-26T11:34:04.507Z,12.10
2023-04-26T11:35:28.595Z,12.10
2023-04-26T11:36:49.274Z,12.20
2023-04-26T11:38:10.275Z,12.20
2023-04-26T11:39:31.786Z,12.20
2023-04-26T11:40:58.693Z,12.30
2023-04-26T11:42:25.697Z,12.30
2023-04-26T11:43:47.892Z,12.40
2023-04-26T11:45:10.593Z,12.40
2023-04-26T11:46:31.732Z,12.50
2023-04-26T11:47:52.385Z,12.50
2023-04-26T11:49:14.265Z,12.60
2023-04-26T11:50:37.462Z,12.60
2023-04-26T11:51:58.637Z,12.70
2023-04-26T11:53:19.104Z,12.80
2023-04-26T11:54:40.097Z,12.80
2023-04-26T11:56:01.114Z,12.80
2023-04-26T11:57:22.056Z,12.70
2023-04-26T11:58:47.722Z,12.70
2023-04-26T12:00:11.107Z,12.80
2023-04-26T12:01:31.845Z,12.80
2023-04-26T12:02:53.766Z,12.80
2023-04-26T12:04:15.146Z,12.90
2023-04-26T12:05:35.949Z,12.80
2023-04-26T12:06:58.004Z,12.60
2023-04-26T12:08:18.494Z,12.50
2023-04-26T12:09:41.516Z,12.50
2023-04-26T12:11:03.177Z,12.40
2023-04-26T12:12:26.586Z,12.40
2023-04-26T12:13:49.103Z,12.50
2023-04-26T12:15:13.720Z,12.40
2023-04-26T12:16:36.600Z,12.40
2023-04-26T12:18:00.301Z,12.60
2023-04-26T12:19:26.725Z,12.90
2023-04-26T12:20:47.708Z,13.10
2023-04-26T12:22:09.208Z,13.40
2023-04-26T12:23:40.448Z,13.60
2023-04-26T12:25:08.939Z,13.80
2023-04-26T12:26:45.112Z,13.90
2023-04-26T12:28:10.121Z,13.70
2023-04-26T12:29:33.026Z,13.50
2023-04-26T12:30:53.679Z,13.70
2023-04-26T12:32:14.721Z,13.70
2023-04-26T12:33:35.929Z,13.70
2023-04-26T12:34:56.775Z,13.80
2023-04-26T12:36:18.010Z,13.60
2023-04-26T12:37:39.461Z,13.30
2023-04-26T12:39:00.338Z,13.30
2023-04-26T12:40:21.220Z,13.70
2023-04-26T12:41:42.806Z,13.80
2023-04-26T12:43:03.437Z,13.90
2023-04-26T12:44:24.521Z,14.10
2023-04-26T12:45:46.956Z,14.20
2023-04-26T12:47:08.275Z,14.40
2023-04-26T12:48:29.218Z,14.50
2023-04-26T12:49:50.136Z,14.60
2023-04-26T12:51:11.220Z,14.60
2023-04-26T12:52:32.459Z,14.60
2023-04-26T12:53:53.782Z,14.40
2023-04-26T12:55:17.398Z,14.40
2023-04-26T12:56:39.442Z,14.10
2023-04-26T12:58:00.220Z,14.20
2023-04-26T12:59:20.852Z,14.10
2023-04-26T13:00:43.884Z,14.10
2023-04-26T13:02:07.019Z,14.00
2023-04-26T13:03:27.826Z,14.10
2023-04-26T13:04:49.177Z,14.20
2023-04-26T13:06:10.336Z,14.50
2023-04-26T13:07:31.680Z,14.60
2023-04-26T13:08:52.624Z,14.70
2023-04-26T13:10:22.593Z,14.80
2023-04-26T13:11:44.458Z,14.90
2023-04-26T13:13:04.990Z,15.00
2023-04-26T13:14:28.858Z,15.10
2023-04-26T13:15:49.996Z,15.10
2023-04-26T13:17:12.117Z,15.20
2023-04-26T13:18:32.961Z,15.10
2023-04-26T13:19:56.418Z,15.20
2023-04-26T13:21:17.353Z,15.30
2023-04-26T13:22:37.878Z,15.30
2023-04-26T13:23:58.892Z,15.20
2023-04-26T13:25:19.840Z,15.20
2023-04-26T13:26:40.616Z,15.30
2023-04-26T13:28:01.455Z,15.30
2023-04-26T13:29:22.267Z,15.30
2023-04-26T13:30:43.408Z,15.20
2023-04-26T13:32:04.614Z,15.30
2023-04-26T13:33:26.683Z,15.30
2023-04-26T13:34:47.671Z,15.30
2023-04-26T13:36:08.830Z,15.20
2023-04-26T13:37:29.564Z,15.10
2023-04-26T13:38:50.529Z,15.00
2023-04-26T13:40:12.694Z,14.90
2023-04-26T13:41:33.944Z,14.90
2023-04-26T13:42:54.678Z,15.00
2023-04-26T13:44:15.523Z,15.00
2023-04-26T13:45:36.629Z,15.10
2023-04-26T13:46:57.744Z,15.20
2023-04-26T13:48:18.817Z,15.10
2023-04-26T13:49:40.990Z,15.10
2023-04-26T13:51:01.835Z,15.40
2023-04-26T13:52:22.832Z,15.40
2023-04-26T13:53:43.631Z,15.40
2023-04-26T13:55:04.944Z,15.40
2023-04-26T13:56:28.493Z,15.30
2023-04-26T13:57:49.384Z,15.30
2023-04-26T13:59:10.370Z,15.10
2023-04-26T14:00:31.139Z,14.80
2023-04-26T14:01:54.254Z,14.70
2023-04-26T14:03:16.189Z,14.70
2023-04-26T14:04:37.186Z,14.70
2023-04-26T14:05:59.376Z,14.60
2023-04-26T14:07:20.166Z,14.60
2023-04-26T14:08:41.106Z,14.70
2023-04-26T14:10:02.139Z,14.70
2023-04-26T14:11:23.808Z,14.80
2023-04-26T14:12:44.421Z,14.70
2023-04-26T14:14:05.237Z,14.60
2023-04-26T14:15:28.651Z,14.50
2023-04-26T14:16:49.500Z,14.50
2023-04-26T14:18:10.347Z,14.30
2023-04-26T14:19:31.485Z,14.30
2023-04-26T14:20:52.109Z,14.20
2023-04-26T14:22:14.670Z,14.10
2023-04-26T14:23:35.304Z,14.30
2023-04-26T14:24:56.721Z,14.30
2023-04-26T14:26:19.354Z,14.20
2023-04-26T14:27:40.157Z,14.30
2023-04-26T14:29:00.648Z,14.20
2023-04-26T14:30:22.167Z,14.30
2023-04-26T14:31:43.268Z,14.40
2023-04-26T14:33:04.401Z,14.60
2023-04-26T14:34:28.103Z,14.60
2023-04-26T14:35:48.812Z,14.50
2023-04-26T14:37:09.478Z,14.50
2023-04-26T14:38:31.769Z,14.40
2023-04-26T14:39:52.693Z,14.50
2023-04-26T14:41:18.201Z,14.50
2023-04-26T14:42:38.758Z,14.60
2023-04-26T14:43:59.804Z,14.60
2023-04-26T14:45:23.666Z,14.70
2023-04-26T14:46:48.928Z,14.70
2023-04-26T14:48:10.294Z,14.60
2023-04-26T14:49:30.787Z,14.60
2023-04-26T14:50:58.582Z,14.70
2023-04-26T14:52:21.353Z,14.80
2023-04-26T14:53:43.656Z,15.00
2023-04-26T14:55:05.953Z,15.00
2023-04-26T14:56:26.586Z,14.90
2023-04-26T14:57:47.989Z,14.70
2023-04-26T14:59:09.018Z,14.60
2023-04-26T15:00:30.004Z,14.50
2023-04-26T15:01:52.610Z,14.50
2023-04-26T15:03:13.876Z,14.60
2023-04-26T15:04:34.868Z,14.50
2023-04-26T15:05:55.866Z,14.50
2023-04-26T15:07:30.853Z,14.60
2023-04-26T15:08:53.928Z,14.60
2023-04-26T15:10:15.123Z,14.60
2023-04-26T15:11:35.970Z,14.70
2023-04-26T15:12:56.918Z,14.70
2023-04-26T15:14:17.776Z,14.70
2023-04-26T15:15:38.716Z,14.80
2023-04-26T15:16:59.835Z,14.80
2023-04-26T15:18:23.897Z,14.80
2023-04-26T15:19:44.713Z,14.90
2023-04-26T15:21:05.611Z,14.90
2023-04-26T15:22:29.340Z,14.90
2023-04-26T15:23:50.102Z,14.90
2023-04-26T15:25:13.007Z,14.70
2023-04-26T15:26:33.542Z,14.80
2023-04-26T15:27:54.497Z,14.80
2023-04-26T15:29:15.467Z,14.80
2023-04-26T15:30:36.328Z,14.80
2023-04-26T15:31:57.420Z,14.80
2023-04-26T15:33:18.395Z,14.70
2023-04-26T15:34:41.489Z,14.80
2023-04-26T15:36:02.243Z,15.00
2023-04-26T15:37:23.301Z,15.00
2023-04-26T15:38:44.351Z,15.40
2023-04-26T15:40:07.097Z,15.40
2023-04-26T15:41:29.090Z,15.70
2023-04-26T15:42:50.476Z,15.80
2023-04-26T15:44:11.665Z,15.70
2023-04-26T15:45:32.110Z,15.80
2023-04-26T15:46:53.053Z,15.60
2023-04-26T15:48:14.051Z,15.50
2023-04-26T15:49:34.914Z,15.40
2023-04-26T15:50:56.184Z,15.50
2023-04-26T15:52:16.980Z,15.70
2023-04-26T15:53:43.326Z,15.80
2023-04-26T15:55:07.064Z,15.60
2023-04-26T15:56:31.964Z,15.30
2023-04-26T15:57:55.542Z,15.30
2023-04-26T15:59:16.349Z,15.20
2023-04-26T16:00:37.135Z,15.00
2023-04-26T16:01:58.106Z,15.10
2023-04-26T16:03:19.281Z,15.00
2023-04-26T16:04:40.505Z,15.10
2023-04-26T16:06:01.780Z,14.90
2023-04-26T16:07:24.789Z,14.80
2023-04-26T16:08:45.501Z,14.70
2023-04-26T16:10:09.014Z,14.70
2023-04-26T16:11:31.861Z,14.70
2023-04-26T16:12:52.787Z,14.70
2023-04-26T16:14:13.369Z,14.70
2023-04-26T16:15:34.728Z,14.80
2023-04-26T16:16:55.881Z,15.00
2023-04-26T16:18:16.778Z,15.10
2023-04-26T16:19:37.705Z,15.00
2023-04-26T16:21:04.616Z,15.00
2023-04-26T16:22:28.879Z,15.10
2023-04-26T16:23:49.879Z,15.10
2023-04-26T16:25:10.835Z,15.20
2023-04-26T16:26:33.037Z,15.30
2023-04-26T16:27:56.234Z,15.40
2023-04-26T16:29:17.150Z,15.40
2023-04-26T16:30:38.076Z,15.60
2023-04-26T16:31:58.825Z,15.50
2023-04-26T16:33:22.728Z,15.30
2023-04-26T16:34:44.297Z,15.10
2023-04-26T16:36:06.169Z,15.10
2023-04-26T16:37:26.752Z,15.00
2023-04-26T16:38:49.058Z,15.00
2023-04-26T16:40:11.074Z,14.80
2023-04-26T16:41:33.048Z,14.50
2023-04-26T16:42:54.118Z,14.30
2023-04-26T16:44:15.430Z,14.00
2023-04-26T16:45:36.621Z,14.00
2023-04-26T16:46:59.113Z,13.90
2023-04-26T16:48:19.915Z,13.80
2023-04-26T16:49:40.586Z,13.70
2023-04-26T16:51:04.667Z,13.70
2023-04-26T16:52:27.440Z,13.80
2023-04-26T16:53:48.433Z,13.80
2023-04-26T16:55:09.842Z,13.80
2023-04-26T16:56:32.069Z,13.70
2023-04-26T16:57:53.206Z,13.80
2023-04-26T16:59:14.401Z,13.80
2023-04-26T17:00:36.614Z,13.80
2023-04-26T17:01:57.405Z,13.80
2023-04-26T17:03:18.533Z,13.90
2023-04-26T17:04:39.901Z,13.90
2023-04-26T17:06:00.768Z,13.60
2023-04-26T17:07:21.345Z,13.50
2023-04-26T17:08:42.153Z,13.60
2023-04-26T17:10:03.205Z,13.50
2023-04-26T17:11:25.539Z,13.30
2023-04-26T17:12:47.750Z,13.40
2023-04-26T17:14:08.318Z,13.60
2023-04-26T17:15:29.388Z,13.50
2023-04-26T17:16:50.395Z,13.50
2023-04-26T17:18:11.047Z,13.30
2023-04-26T17:19:31.903Z,13.40
2023-04-26T17:20:53.234Z,13.30
2023-04-26T17:22:14.025Z,13.20
2023-04-26T17:23:35.163Z,13.20
2023-04-26T17:24:58.842Z,13.30
2023-04-26T17:26:19.641Z,13.40
2023-04-26T17:27:40.090Z,13.40
2023-04-26T17:29:02.237Z,13.40
2023-04-26T17:30:23.535Z,13.30
2023-04-26T17:31:44.605Z,13.30
2023-04-26T17:33:05.600Z,13.30
2023-04-26T17:34:26.382Z,13.30
2023-04-26T17:35:47.552Z,13.30
2023-04-26T17:37:08.417Z,13.20
2023-04-26T17:38:29.345Z,13.20
2023-04-26T17:39:50.392Z,13.20
2023-04-26T17:41:12.105Z,13.20
2023-04-26T17:42:32.818Z,13.00
2023-04-26T17:43:53.673Z,13.00
2023-04-26T17:45:16.308Z,13.10
2023-04-26T17:46:36.951Z,13.20
2023-04-26T17:47:57.818Z,13.10
2023-04-26T17:49:18.786Z,13.10
2023-04-26T17:50:40.261Z,13.10
2023-04-26T17:52:00.914Z,13.00
2023-04-26T17:53:22.085Z,13.00
2023-04-26T17:54:43.180Z,13.00
2023-04-26T17:56:04.466Z,13.10